»·PEaware :: ASA250 KJAC-KEUG

ASA250 :: KJAC-KEUG

FLIGHT INFORMATION

Flight Status: Arrived
Operator:
Alaska Airlines
More flights by this operator :: More flights under this callsign
Pilot: Anonymous 13363 (13363)
Aircraft: BOEING 737-800
(B738)
More flights by this aircraft type
Origin: KJAC Jackson Hole
United States
Destination: KEUG Mahlon Sweet
United States
More flights between these airports :: More routes between these airports
Route: ALPIN2 IDA BOI DSD VIDAS
File this flight plan on PilotEdge
Remarks:
Altitude:
(Current/Filed)
38,000ft
Speed:
(Current/Filed)
454kts
Departed: 08-Feb-18 12:28 PM
Arrived: 08-Feb-18 02:06 PM
Distance/Time
Traveled:
540nm/1:38
Distance/Time
To Go:
Arrived

Flight Plot

Page will automatically refresh every two minutes.

Flight plan parsing failed; only flown route is shown


Map Options




Map Legend


Flown Route
Filed Route
Departure Airport
Arrival Airport
Navaid (VOR, NDB)
Fix

Horizontal Profiles

Position Reports

Time Latitude Longitude Heading Altitude Ground
Speed
08-Feb-18 12:05 43.605046 -110.736353 109 6458ft 0kts
08-Feb-18 12:06 43.605046 -110.736353 109 6458ft 0kts
08-Feb-18 12:07 43.605046 -110.736353 109 6458ft 0kts
08-Feb-18 12:08 43.605046 -110.736353 109 6458ft 0kts
08-Feb-18 12:09 43.605046 -110.736353 109 6458ft 0kts
08-Feb-18 12:10 43.605046 -110.736353 109 6458ft 0kts
08-Feb-18 12:11 43.605046 -110.736353 109 6458ft 0kts
08-Feb-18 12:12 43.605046 -110.736353 109 6458ft 0kts
08-Feb-18 12:13 43.605046 -110.736353 109 6458ft 0kts
08-Feb-18 12:14 43.605046 -110.736353 109 6458ft 0kts
08-Feb-18 12:15 43.605046 -110.736353 109 6458ft 0kts
08-Feb-18 12:16 43.605046 -110.736353 109 6458ft 0kts
08-Feb-18 12:17 43.605046 -110.736353 109 6458ft 0kts
08-Feb-18 12:18 43.605046 -110.736353 109 6458ft 0kts
08-Feb-18 12:19 43.605046 -110.736353 109 6458ft 0kts
08-Feb-18 12:20 43.605046 -110.736353 109 6458ft 0kts
08-Feb-18 12:21 43.605046 -110.736353 109 6458ft 0kts
08-Feb-18 12:22 43.605046 -110.736353 109 6458ft 0kts
08-Feb-18 12:23 43.605047 -110.736353 109 6458ft 0kts
08-Feb-18 12:24 43.605047 -110.736353 109 6458ft 0kts
08-Feb-18 12:25 43.605047 -110.736353 109 6458ft 0kts
08-Feb-18 12:26 43.605047 -110.736353 109 6458ft 0kts
08-Feb-18 12:27 43.605126 -110.736649 105 6459ft 2kts
08-Feb-18 12:28 43.605029 -110.737273 31 6459ft 2kts
08-Feb-18 12:29 43.604915 -110.737337 18 6459ft 0kts
08-Feb-18 12:30 43.604915 -110.737337 18 6459ft 0kts
08-Feb-18 12:31 43.605121 -110.737241 19 6458ft 5kts
08-Feb-18 12:32 43.608336 -110.735666 20 6459ft 17kts
08-Feb-18 12:33 43.612951 -110.733369 20 6459ft 13kts
08-Feb-18 12:34 43.615366 -110.733792 264 6459ft 0kts
08-Feb-18 12:35 43.601955 -110.740404 199 6459ft 148kts
08-Feb-18 12:36 43.562106 -110.772959 220 8125ft 209kts
08-Feb-18 12:37 43.502810 -110.819487 207 10594ft 277kts
08-Feb-18 12:38 43.426781 -110.865758 205 13512ft 310kts
08-Feb-18 12:38 43.359598 -110.905348 205 16096ft 323kts
08-Feb-18 12:40 43.261779 -110.964299 221 19183ft 338kts
08-Feb-18 12:41 43.249084 -111.078474 287 21564ft 325kts
08-Feb-18 12:41 43.273347 -111.177086 291 23791ft 333kts
08-Feb-18 12:43 43.312374 -111.317968 292 26512ft 346kts
08-Feb-18 12:44 43.347440 -111.443077 292 28571ft 357kts
08-Feb-18 12:44 43.377173 -111.549511 292 30371ft 358kts
08-Feb-18 12:46 43.416886 -111.692553 292 32962ft 347kts
08-Feb-18 12:47 43.450528 -111.814448 293 34909ft 340kts
08-Feb-18 12:47 43.478237 -111.915116 293 36274ft 336kts
08-Feb-18 12:49 43.513268 -112.042925 294 37682ft 334kts
08-Feb-18 12:49 43.520667 -112.151519 276 38186ft 356kts
08-Feb-18 12:50 43.519842 -112.292782 275 38191ft 385kts
08-Feb-18 12:51 43.518763 -112.441406 275 38177ft 387kts
08-Feb-18 12:52 43.517801 -112.589359 276 38181ft 384kts
08-Feb-18 12:53 43.517002 -112.731504 274 38177ft 390kts
08-Feb-18 12:54 43.516322 -112.877721 275 38187ft 377kts
08-Feb-18 12:55 43.515933 -113.022635 275 38183ft 379kts
08-Feb-18 12:56 43.515729 -113.167292 275 38181ft 379kts
08-Feb-18 12:57 43.515710 -113.312256 275 38232ft 379kts
08-Feb-18 12:58 43.515868 -113.456950 275 38231ft 378kts
08-Feb-18 12:59 43.516207 -113.599555 276 38229ft 378kts
08-Feb-18 13:00 43.516612 -113.735855 275 38240ft 379kts
08-Feb-18 13:01 43.517261 -113.880239 275 38239ft 378kts
08-Feb-18 13:02 43.518137 -114.025205 275 38237ft 378kts
08-Feb-18 13:03 43.519198 -114.169779 276 38235ft 378kts
08-Feb-18 13:04 43.520439 -114.314102 276 38233ft 377kts
08-Feb-18 13:05 43.521859 -114.458197 276 38231ft 377kts
08-Feb-18 13:06 43.523462 -114.602406 276 38229ft 377kts
08-Feb-18 13:07 43.525143 -114.745829 276 38239ft 377kts
08-Feb-18 13:08 43.527074 -114.890452 276 38238ft 377kts
08-Feb-18 13:09 43.529208 -115.034168 276 38236ft 376kts
08-Feb-18 13:10 43.531535 -115.178398 276 38234ft 376kts
08-Feb-18 13:11 43.534014 -115.320939 277 38206ft 376kts
08-Feb-18 13:12 43.536681 -115.464062 277 38204ft 375kts
08-Feb-18 13:13 43.539541 -115.607718 277 38202ft 375kts
08-Feb-18 13:14 43.542453 -115.750362 276 38212ft 375kts
08-Feb-18 13:15 43.545610 -115.893150 277 38211ft 374kts
08-Feb-18 13:16 43.548986 -116.036187 277 38209ft 374kts
08-Feb-18 13:17 43.552543 -116.179197 277 38207ft 373kts
08-Feb-18 13:18 43.570280 -116.317756 283 38206ft 369kts
08-Feb-18 13:19 43.585714 -116.445563 283 38191ft 369kts
08-Feb-18 13:20 43.602084 -116.584689 283 38174ft 369kts
08-Feb-18 13:21 43.618352 -116.722946 283 38185ft 369kts
08-Feb-18 13:22 43.634928 -116.862302 283 38184ft 368kts
08-Feb-18 13:23 43.651636 -117.000887 283 38181ft 367kts
08-Feb-18 13:24 43.668911 -117.142132 282 38222ft 385kts
08-Feb-18 13:25 43.686924 -117.288250 282 38205ft 385kts
08-Feb-18 13:26 43.705046 -117.434052 283 38204ft 385kts
08-Feb-18 13:27 43.723287 -117.579350 283 38202ft 385kts
08-Feb-18 13:28 43.741607 -117.724376 282 38211ft 385kts
08-Feb-18 13:29 43.760518 -117.871987 282 38223ft 402kts
08-Feb-18 13:30 43.780154 -118.023651 282 38212ft 400kts
08-Feb-18 13:31 43.799931 -118.175058 282 38260ft 400kts
08-Feb-18 13:32 43.819792 -118.325603 283 38179ft 400kts
08-Feb-18 13:33 43.839956 -118.476941 283 38177ft 400kts
08-Feb-18 13:34 43.860269 -118.627914 283 38175ft 399kts
08-Feb-18 13:36 43.879979 -118.773804 283 38188ft 395kts
08-Feb-18 13:37 43.900755 -118.925224 283 38180ft 399kts
08-Feb-18 13:38 43.921620 -119.075941 283 38179ft 399kts
08-Feb-18 13:39 43.942741 -119.227067 283 38178ft 398kts
08-Feb-18 13:40 43.963930 -119.377303 283 38176ft 398kts
08-Feb-18 13:41 43.985375 -119.527926 283 38175ft 398kts
08-Feb-18 13:42 44.006171 -119.672777 283 38181ft 398kts
08-Feb-18 13:43 44.027839 -119.822726 282 38188ft 386kts
08-Feb-18 13:44 44.049619 -119.971841 283 38177ft 399kts
08-Feb-18 13:45 44.071692 -120.121464 283 38205ft 397kts
08-Feb-18 13:46 44.093996 -120.271326 284 38203ft 396kts
08-Feb-18 13:47 44.115397 -120.414284 284 38158ft 348kts
08-Feb-18 13:48 44.135641 -120.548004 284 36413ft 358kts
08-Feb-18 13:49 44.155137 -120.675716 283 34759ft 397kts
08-Feb-18 13:50 44.178629 -120.829016 283 32700ft 408kts
08-Feb-18 13:51 44.202390 -120.982327 283 30655ft 403kts
08-Feb-18 13:52 44.226837 -121.138724 284 28587ft 419kts
08-Feb-18 13:53 44.251271 -121.297770 278 26460ft 423kts
08-Feb-18 13:54 44.242493 -121.462271 267 24339ft 430kts
08-Feb-18 13:55 44.230887 -121.625822 267 22189ft 400kts
08-Feb-18 13:56 44.220990 -121.766461 267 20355ft 345kts
08-Feb-18 13:57 44.212306 -121.893456 267 18703ft 324kts
08-Feb-18 13:58 44.203945 -122.018511 267 17072ft 327kts
08-Feb-18 13:59 44.195751 -122.142744 268 15154ft 317kts
08-Feb-18 14:00 44.187882 -122.264337 268 13554ft 314kts
08-Feb-18 14:01 44.180293 -122.383467 268 12004ft 309kts
08-Feb-18 14:02 44.172959 -122.500139 269 10561ft 303kts
08-Feb-18 14:03 44.165840 -122.615585 269 9985ft 299kts
08-Feb-18 14:04 44.172429 -122.716321 280 9176ft 277kts
08-Feb-18 14:05 44.185428 -122.818749 278 7338ft 267kts
08-Feb-18 14:06 44.196939 -122.910743 278 6123ft 238kts
08-Feb-18 14:07 44.207889 -122.999325 279 4982ft 230kts
08-Feb-18 14:08 44.217936 -123.081979 280 3890ft 231kts
08-Feb-18 14:09 44.227479 -123.160957 272 2578ft 163kts
08-Feb-18 14:10 44.206218 -123.210617 209 1808ft 149kts
08-Feb-18 14:11 44.166737 -123.219845 182 1087ft 144kts
08-Feb-18 14:12 44.128562 -123.218996 180 372ft 125kts
08-Feb-18 14:13 44.115937 -123.218409 91 368ft 9kts
08-Feb-18 14:14 44.117641 -123.216759 30 368ft 8kts
08-Feb-18 14:15 44.119479 -123.214313 58 368ft 0kts
08-Feb-18 14:16 44.119479 -123.214313 58 368ft 0kts
08-Feb-18 14:17 44.119479 -123.214313 58 368ft 0kts
08-Feb-18 14:18 44.119479 -123.214313 58 368ft 0kts
08-Feb-18 14:19 44.119479 -123.214313 58 368ft 0kts
08-Feb-18 14:20 44.119479 -123.214313 58 368ft 0kts
08-Feb-18 14:21 44.119479 -123.214313 58 368ft 0kts
08-Feb-18 14:22 44.119479 -123.214313 58 368ft 0kts
08-Feb-18 14:23 44.119479 -123.214313 58 368ft 0kts
08-Feb-18 14:24 44.119479 -123.214313 58 368ft 0kts
08-Feb-18 14:25 44.119479 -123.214313 58 368ft 0kts
08-Feb-18 14:26 44.119479 -123.214313 58 368ft 0kts

Navigation Log

Ident Type
Flight plan parsing failed, navigation log unavailable